sensor_id;sensor_type;location;lat;lon;timestamp;P1;durP1;ratioP1;P2;durP2;ratioP2
3547;SDS011;1788;49.400;11.092;2022-12-07T00:00:28;6.43;;;5.90;;
3547;SDS011;1788;49.400;11.092;2022-12-07T00:02:55;6.00;;;5.30;;
3547;SDS011;1788;49.400;11.092;2022-12-07T00:05:21;8.47;;;6.03;;
3547;SDS011;1788;49.400;11.092;2022-12-07T00:07:48;8.40;;;6.20;;
3547;SDS011;1788;49.400;11.092;2022-12-07T00:10:15;8.23;;;6.23;;
3547;SDS011;1788;49.400;11.092;2022-12-07T00:12:41;10.40;;;6.33;;
3547;SDS011;1788;49.400;11.092;2022-12-07T00:15:09;8.23;;;6.27;;
3547;SDS011;1788;49.400;11.092;2022-12-07T00:17:35;10.87;;;6.30;;
3547;SDS011;1788;49.400;11.092;2022-12-07T00:20:02;9.20;;;6.67;;
3547;SDS011;1788;49.400;11.092;2022-12-07T00:22:28;10.13;;;6.90;;
3547;SDS011;1788;49.400;11.092;2022-12-07T00:24:55;8.97;;;6.63;;
3547;SDS011;1788;49.400;11.092;2022-12-07T00:27:22;8.10;;;5.73;;
3547;SDS011;1788;49.400;11.092;2022-12-07T00:29:48;7.80;;;6.33;;
3547;SDS011;1788;49.400;11.092;2022-12-07T00:32:15;9.40;;;6.60;;
3547;SDS011;1788;49.400;11.092;2022-12-07T00:34:42;7.27;;;6.53;;
3547;SDS011;1788;49.400;11.092;2022-12-07T00:37:09;10.93;;;6.57;;
3547;SDS011;1788;49.400;11.092;2022-12-07T00:39:36;8.00;;;6.27;;
3547;SDS011;1788;49.400;11.092;2022-12-07T00:42:03;10.97;;;7.63;;
3547;SDS011;1788;49.400;11.092;2022-12-07T00:44:29;9.57;;;7.07;;
3547;SDS011;1788;49.400;11.092;2022-12-07T00:46:56;8.60;;;6.43;;
3547;SDS011;1788;49.400;11.092;2022-12-07T00:49:23;9.83;;;7.03;;
3547;SDS011;1788;49.400;11.092;2022-12-07T00:51:49;10.93;;;7.00;;
3547;SDS011;1788;49.400;11.092;2022-12-07T00:54:16;8.53;;;7.20;;
3547;SDS011;1788;49.400;11.092;2022-12-07T00:56:42;12.63;;;6.87;;
3547;SDS011;1788;49.400;11.092;2022-12-07T00:59:11;11.10;;;7.10;;
3547;SDS011;1788;49.400;11.092;2022-12-07T01:01:36;12.03;;;7.33;;
3547;SDS011;1788;49.400;11.092;2022-12-07T01:04:03;11.63;;;7.33;;
3547;SDS011;1788;49.400;11.092;2022-12-07T01:06:30;13.33;;;7.80;;
3547;SDS011;1788;49.400;11.092;2022-12-07T01:08:56;13.23;;;7.50;;
3547;SDS011;1788;49.400;11.092;2022-12-07T01:11:24;9.20;;;6.60;;
3547;SDS011;1788;49.400;11.092;2022-12-07T01:13:51;10.70;;;6.80;;
3547;SDS011;1788;49.400;11.092;2022-12-07T01:16:17;10.17;;;7.03;;
3547;SDS011;1788;49.400;11.092;2022-12-07T01:18:45;8.77;;;7.37;;
3547;SDS011;1788;49.400;11.092;2022-12-07T01:21:11;10.47;;;7.43;;
3547;SDS011;1788;49.400;11.092;2022-12-07T01:23:38;11.67;;;7.63;;
3547;SDS011;1788;49.400;11.092;2022-12-07T01:26:05;8.63;;;7.03;;
3547;SDS011;1788;49.400;11.092;2022-12-07T01:28:31;9.17;;;6.47;;
3547;SDS011;1788;49.400;11.092;2022-12-07T01:30:58;12.77;;;7.70;;
3547;SDS011;1788;49.400;11.092;2022-12-07T01:33:24;11.93;;;7.37;;
3547;SDS011;1788;49.400;11.092;2022-12-07T01:35:51;11.43;;;7.13;;
3547;SDS011;1788;49.400;11.092;2022-12-07T01:38:18;10.63;;;7.00;;
3547;SDS011;1788;49.400;11.092;2022-12-07T01:40:45;11.37;;;7.47;;
3547;SDS011;1788;49.400;11.092;2022-12-07T01:45:39;13.03;;;7.73;;
3547;SDS011;1788;49.400;11.092;2022-12-07T01:48:05;9.97;;;7.07;;
3547;SDS011;1788;49.400;11.092;2022-12-07T01:50:32;11.87;;;7.73;;
3547;SDS011;1788;49.400;11.092;2022-12-07T01:52:59;11.37;;;7.83;;
3547;SDS011;1788;49.400;11.092;2022-12-07T01:55:25;9.87;;;7.07;;
3547;SDS011;1788;49.400;11.092;2022-12-07T01:57:52;13.47;;;7.93;;
3547;SDS011;1788;49.400;11.092;2022-12-07T02:00:19;12.27;;;7.90;;
3547;SDS011;1788;49.400;11.092;2022-12-07T02:05:13;11.43;;;6.80;;
3547;SDS011;1788;49.400;11.092;2022-12-07T02:07:40;13.57;;;8.30;;
3547;SDS011;1788;49.400;11.092;2022-12-07T02:12:33;12.23;;;7.40;;
3547;SDS011;1788;49.400;11.092;2022-12-07T02:14:59;11.77;;;7.27;;
3547;SDS011;1788;49.400;11.092;2022-12-07T02:27:17;13.37;;;7.43;;
3547;SDS011;1788;49.400;11.092;2022-12-07T02:37:01;14.03;;;8.87;;
3547;SDS011;1788;49.400;11.092;2022-12-07T02:39:29;15.03;;;8.93;;
3547;SDS011;1788;49.400;11.092;2022-12-07T02:41:55;14.63;;;9.03;;
3547;SDS011;1788;49.400;11.092;2022-12-07T02:46:49;14.93;;;8.90;;
3547;SDS011;1788;49.400;11.092;2022-12-07T02:49:13;15.00;;;8.40;;
3547;SDS011;1788;49.400;11.092;2022-12-07T02:54:09;13.07;;;8.63;;
3547;SDS011;1788;49.400;11.092;2022-12-07T03:03:58;14.03;;;8.83;;
3547;SDS011;1788;49.400;11.092;2022-12-07T03:06:22;14.57;;;8.50;;
3547;SDS011;1788;49.400;11.092;2022-12-07T03:18:35;12.23;;;8.40;;
3547;SDS011;1788;49.400;11.092;2022-12-07T03:21:02;18.03;;;9.63;;
3547;SDS011;1788;49.400;11.092;2022-12-07T03:23:27;15.47;;;9.60;;
3547;SDS011;1788;49.400;11.092;2022-12-07T03:25:55;17.53;;;9.67;;
3547;SDS011;1788;49.400;11.092;2022-12-07T03:28:20;17.97;;;9.13;;
3547;SDS011;1788;49.400;11.092;2022-12-07T03:30:49;16.20;;;8.90;;
3547;SDS011;1788;49.400;11.092;2022-12-07T03:33:14;20.07;;;9.37;;
3547;SDS011;1788;49.400;11.092;2022-12-07T03:35:41;19.10;;;9.33;;
3547;SDS011;1788;49.400;11.092;2022-12-07T03:38:13;13.57;;;9.23;;
3547;SDS011;1788;49.400;11.092;2022-12-07T03:40:34;13.03;;;9.07;;
3547;SDS011;1788;49.400;11.092;2022-12-07T03:43:01;15.63;;;9.23;;
3547;SDS011;1788;49.400;11.092;2022-12-07T03:47:58;18.77;;;9.20;;
3547;SDS011;1788;49.400;11.092;2022-12-07T03:52:51;15.50;;;9.30;;
3547;SDS011;1788;49.400;11.092;2022-12-07T03:55:15;15.07;;;9.83;;
3547;SDS011;1788;49.400;11.092;2022-12-07T03:57:40;16.43;;;8.87;;
3547;SDS011;1788;49.400;11.092;2022-12-07T04:00:07;13.57;;;8.93;;
3547;SDS011;1788;49.400;11.092;2022-12-07T04:02:34;14.43;;;9.37;;
3547;SDS011;1788;49.400;11.092;2022-12-07T04:05:00;15.83;;;8.43;;
3547;SDS011;1788;49.400;11.092;2022-12-07T04:07:27;19.00;;;9.37;;
3547;SDS011;1788;49.400;11.092;2022-12-07T04:09:53;15.60;;;9.33;;
3547;SDS011;1788;49.400;11.092;2022-12-07T04:12:20;13.30;;;9.17;;
3547;SDS011;1788;49.400;11.092;2022-12-07T04:14:47;17.47;;;9.03;;
3547;SDS011;1788;49.400;11.092;2022-12-07T04:17:13;14.93;;;9.40;;
3547;SDS011;1788;49.400;11.092;2022-12-07T04:19:41;15.13;;;9.10;;
3547;SDS011;1788;49.400;11.092;2022-12-07T04:22:07;14.83;;;8.27;;
3547;SDS011;1788;49.400;11.092;2022-12-07T04:24:34;13.67;;;8.60;;
3547;SDS011;1788;49.400;11.092;2022-12-07T04:27:01;15.17;;;9.00;;
3547;SDS011;1788;49.400;11.092;2022-12-07T04:29:27;15.30;;;8.07;;
3547;SDS011;1788;49.400;11.092;2022-12-07T04:31:54;13.07;;;8.30;;
3547;SDS011;1788;49.400;11.092;2022-12-07T04:34:22;18.37;;;9.57;;
3547;SDS011;1788;49.400;11.092;2022-12-07T04:36:50;14.73;;;9.10;;
3547;SDS011;1788;49.400;11.092;2022-12-07T04:39:20;12.83;;;8.40;;
3547;SDS011;1788;49.400;11.092;2022-12-07T04:41:44;14.57;;;7.97;;
3547;SDS011;1788;49.400;11.092;2022-12-07T04:44:11;12.43;;;8.73;;
3547;SDS011;1788;49.400;11.092;2022-12-07T04:46:38;15.07;;;8.90;;
3547;SDS011;1788;49.400;11.092;2022-12-07T04:49:04;13.13;;;8.57;;
3547;SDS011;1788;49.400;11.092;2022-12-07T04:51:32;15.07;;;7.90;;
3547;SDS011;1788;49.400;11.092;2022-12-07T04:53:59;18.27;;;9.57;;
3547;SDS011;1788;49.400;11.092;2022-12-07T04:56:25;17.17;;;8.43;;
3547;SDS011;1788;49.400;11.092;2022-12-07T04:58:52;18.70;;;10.33;;
3547;SDS011;1788;49.400;11.092;2022-12-07T05:01:19;14.37;;;9.40;;
3547;SDS011;1788;49.400;11.092;2022-12-07T05:03:45;13.73;;;9.30;;
3547;SDS011;1788;49.400;11.092;2022-12-07T05:06:13;19.60;;;10.23;;
3547;SDS011;1788;49.400;11.092;2022-12-07T05:08:40;16.30;;;9.23;;
3547;SDS011;1788;49.400;11.092;2022-12-07T05:11:06;13.90;;;10.13;;
3547;SDS011;1788;49.400;11.092;2022-12-07T05:13:33;13.83;;;9.10;;
3547;SDS011;1788;49.400;11.092;2022-12-07T05:15:59;15.53;;;10.47;;
3547;SDS011;1788;49.400;11.092;2022-12-07T05:18:26;16.43;;;10.00;;
3547;SDS011;1788;49.400;11.092;2022-12-07T05:20:53;18.57;;;9.97;;
3547;SDS011;1788;49.400;11.092;2022-12-07T05:23:20;17.00;;;10.77;;
3547;SDS011;1788;49.400;11.092;2022-12-07T05:25:46;18.60;;;10.87;;
3547;SDS011;1788;49.400;11.092;2022-12-07T05:28:13;19.37;;;10.40;;
3547;SDS011;1788;49.400;11.092;2022-12-07T05:30:41;15.97;;;10.60;;
3547;SDS011;1788;49.400;11.092;2022-12-07T05:33:08;16.23;;;10.07;;
3547;SDS011;1788;49.400;11.092;2022-12-07T05:35:35;22.33;;;12.20;;
3547;SDS011;1788;49.400;11.092;2022-12-07T05:38:02;22.17;;;11.93;;
3547;SDS011;1788;49.400;11.092;2022-12-07T05:40:28;20.00;;;12.63;;
3547;SDS011;1788;49.400;11.092;2022-12-07T05:42:55;19.10;;;11.23;;
3547;SDS011;1788;49.400;11.092;2022-12-07T05:45:21;26.00;;;11.97;;
3547;SDS011;1788;49.400;11.092;2022-12-07T05:47:48;20.40;;;12.07;;
3547;SDS011;1788;49.400;11.092;2022-12-07T05:50:15;18.17;;;11.83;;
3547;SDS011;1788;49.400;11.092;2022-12-07T05:52:41;19.07;;;11.17;;
3547;SDS011;1788;49.400;11.092;2022-12-07T05:55:09;25.30;;;13.53;;
3547;SDS011;1788;49.400;11.092;2022-12-07T05:57:35;21.90;;;11.57;;
3547;SDS011;1788;49.400;11.092;2022-12-07T06:00:03;22.27;;;13.50;;
3547;SDS011;1788;49.400;11.092;2022-12-07T06:02:29;33.97;;;18.87;;
3547;SDS011;1788;49.400;11.092;2022-12-07T06:04:56;37.93;;;23.13;;
3547;SDS011;1788;49.400;11.092;2022-12-07T06:07:23;31.53;;;17.90;;
3547;SDS011;1788;49.400;11.092;2022-12-07T06:09:50;22.73;;;13.30;;
3547;SDS011;1788;49.400;11.092;2022-12-07T06:12:16;28.27;;;14.53;;
3547;SDS011;1788;49.400;11.092;2022-12-07T06:14:43;30.43;;;13.10;;
3547;SDS011;1788;49.400;11.092;2022-12-07T06:17:10;21.23;;;11.07;;
3547;SDS011;1788;49.400;11.092;2022-12-07T06:19:36;17.57;;;10.50;;
3547;SDS011;1788;49.400;11.092;2022-12-07T06:22:03;21.67;;;12.57;;
3547;SDS011;1788;49.400;11.092;2022-12-07T06:24:30;29.37;;;14.97;;
3547;SDS011;1788;49.400;11.092;2022-12-07T06:26:56;32.83;;;17.90;;
3547;SDS011;1788;49.400;11.092;2022-12-07T06:29:24;30.33;;;15.33;;
3547;SDS011;1788;49.400;11.092;2022-12-07T06:31:50;24.70;;;12.97;;
3547;SDS011;1788;49.400;11.092;2022-12-07T06:34:19;23.97;;;13.10;;
3547;SDS011;1788;49.400;11.092;2022-12-07T06:36:44;23.43;;;12.57;;
3547;SDS011;1788;49.400;11.092;2022-12-07T06:39:11;36.03;;;18.70;;
3547;SDS011;1788;49.400;11.092;2022-12-07T06:41:38;26.13;;;13.13;;
3547;SDS011;1788;49.400;11.092;2022-12-07T06:44:05;24.17;;;12.63;;
3547;SDS011;1788;49.400;11.092;2022-12-07T06:46:31;21.77;;;11.77;;
3547;SDS011;1788;49.400;11.092;2022-12-07T06:48:58;25.00;;;13.43;;
3547;SDS011;1788;49.400;11.092;2022-12-07T06:51:25;28.63;;;12.30;;
3547;SDS011;1788;49.400;11.092;2022-12-07T06:53:52;25.33;;;12.87;;
3547;SDS011;1788;49.400;11.092;2022-12-07T06:56:19;20.03;;;11.20;;
3547;SDS011;1788;49.400;11.092;2022-12-07T06:58:46;26.13;;;13.23;;
3547;SDS011;1788;49.400;11.092;2022-12-07T07:01:13;23.30;;;12.60;;
3547;SDS011;1788;49.400;11.092;2022-12-07T07:03:39;24.47;;;12.20;;
3547;SDS011;1788;49.400;11.092;2022-12-07T07:06:06;26.03;;;12.20;;
3547;SDS011;1788;49.400;11.092;2022-12-07T07:08:34;25.93;;;13.03;;
3547;SDS011;1788;49.400;11.092;2022-12-07T07:11:00;22.47;;;12.57;;
3547;SDS011;1788;49.400;11.092;2022-12-07T07:13:26;27.67;;;13.03;;
3547;SDS011;1788;49.400;11.092;2022-12-07T07:15:53;19.70;;;11.47;;
3547;SDS011;1788;49.400;11.092;2022-12-07T07:18:20;25.93;;;12.60;;
3547;SDS011;1788;49.400;11.092;2022-12-07T07:20:46;23.07;;;11.83;;
3547;SDS011;1788;49.400;11.092;2022-12-07T07:23:13;23.73;;;12.33;;
3547;SDS011;1788;49.400;11.092;2022-12-07T07:25:39;24.83;;;14.50;;
3547;SDS011;1788;49.400;11.092;2022-12-07T07:28:06;40.33;;;19.47;;
3547;SDS011;1788;49.400;11.092;2022-12-07T07:30:33;36.30;;;19.27;;
3547;SDS011;1788;49.400;11.092;2022-12-07T07:33:00;38.53;;;19.57;;
3547;SDS011;1788;49.400;11.092;2022-12-07T07:35:27;31.00;;;17.23;;
3547;SDS011;1788;49.400;11.092;2022-12-07T07:37:53;29.60;;;16.73;;
3547;SDS011;1788;49.400;11.092;2022-12-07T07:40:20;31.53;;;16.53;;
3547;SDS011;1788;49.400;11.092;2022-12-07T07:42:47;38.60;;;17.67;;
3547;SDS011;1788;49.400;11.092;2022-12-07T07:45:13;32.23;;;15.90;;
3547;SDS011;1788;49.400;11.092;2022-12-07T07:47:40;38.30;;;19.20;;
3547;SDS011;1788;49.400;11.092;2022-12-07T07:50:06;69.17;;;29.07;;
3547;SDS011;1788;49.400;11.092;2022-12-07T07:52:34;39.90;;;17.80;;
3547;SDS011;1788;49.400;11.092;2022-12-07T07:55:00;42.80;;;19.27;;
3547;SDS011;1788;49.400;11.092;2022-12-07T07:57:27;33.83;;;17.67;;
3547;SDS011;1788;49.400;11.092;2022-12-07T07:59:53;29.80;;;15.50;;
3547;SDS011;1788;49.400;11.092;2022-12-07T08:02:20;35.90;;;16.47;;
3547;SDS011;1788;49.400;11.092;2022-12-07T08:04:47;50.50;;;22.60;;
3547;SDS011;1788;49.400;11.092;2022-12-07T08:07:14;36.97;;;17.50;;
3547;SDS011;1788;49.400;11.092;2022-12-07T08:09:40;31.07;;;15.17;;
3547;SDS011;1788;49.400;11.092;2022-12-07T08:12:07;30.30;;;14.33;;
3547;SDS011;1788;49.400;11.092;2022-12-07T08:14:34;27.57;;;13.60;;
3547;SDS011;1788;49.400;11.092;2022-12-07T08:17:00;28.90;;;14.50;;
3547;SDS011;1788;49.400;11.092;2022-12-07T08:19:28;27.43;;;14.10;;
3547;SDS011;1788;49.400;11.092;2022-12-07T08:21:55;25.57;;;14.53;;
3547;SDS011;1788;49.400;11.092;2022-12-07T08:24:22;33.60;;;16.67;;
3547;SDS011;1788;49.400;11.092;2022-12-07T08:26:48;32.27;;;13.73;;
3547;SDS011;1788;49.400;11.092;2022-12-07T08:29:15;26.87;;;12.70;;
3547;SDS011;1788;49.400;11.092;2022-12-07T08:31:43;27.57;;;13.90;;
3547;SDS011;1788;49.400;11.092;2022-12-07T08:34:10;29.27;;;13.90;;
3547;SDS011;1788;49.400;11.092;2022-12-07T08:36:36;27.83;;;15.23;;
3547;SDS011;1788;49.400;11.092;2022-12-07T08:39:03;20.20;;;11.90;;
3547;SDS011;1788;49.400;11.092;2022-12-07T08:41:30;27.03;;;13.07;;
3547;SDS011;1788;49.400;11.092;2022-12-07T08:43:56;27.57;;;12.97;;
3547;SDS011;1788;49.400;11.092;2022-12-07T08:48:51;27.40;;;13.33;;
3547;SDS011;1788;49.400;11.092;2022-12-07T08:51:17;23.50;;;11.77;;
3547;SDS011;1788;49.400;11.092;2022-12-07T08:53:44;22.77;;;11.67;;
3547;SDS011;1788;49.400;11.092;2022-12-07T08:56:11;25.80;;;10.93;;
3547;SDS011;1788;49.400;11.092;2022-12-07T08:58:38;25.53;;;12.13;;
3547;SDS011;1788;49.400;11.092;2022-12-07T09:01:05;21.37;;;10.80;;
3547;SDS011;1788;49.400;11.092;2022-12-07T09:03:32;20.90;;;10.07;;
3547;SDS011;1788;49.400;11.092;2022-12-07T09:05:58;20.53;;;10.90;;
3547;SDS011;1788;49.400;11.092;2022-12-07T09:08:26;21.67;;;11.53;;
3547;SDS011;1788;49.400;11.092;2022-12-07T09:10:51;20.73;;;10.60;;
3547;SDS011;1788;49.400;11.092;2022-12-07T09:13:18;22.23;;;12.07;;
3547;SDS011;1788;49.400;11.092;2022-12-07T09:15:45;21.13;;;10.33;;
3547;SDS011;1788;49.400;11.092;2022-12-07T09:18:11;23.67;;;12.43;;
3547;SDS011;1788;49.400;11.092;2022-12-07T09:20:38;25.87;;;13.47;;
3547;SDS011;1788;49.400;11.092;2022-12-07T09:23:06;28.40;;;14.73;;
3547;SDS011;1788;49.400;11.092;2022-12-07T09:25:32;22.83;;;11.37;;
3547;SDS011;1788;49.400;11.092;2022-12-07T09:27:59;28.13;;;13.40;;
3547;SDS011;1788;49.400;11.092;2022-12-07T09:30:26;19.93;;;12.33;;
3547;SDS011;1788;49.400;11.092;2022-12-07T09:32:53;21.53;;;11.70;;
3547;SDS011;1788;49.400;11.092;2022-12-07T09:35:19;20.70;;;11.03;;
3547;SDS011;1788;49.400;11.092;2022-12-07T09:37:46;20.63;;;11.10;;
3547;SDS011;1788;49.400;11.092;2022-12-07T09:40:12;20.40;;;10.83;;
3547;SDS011;1788;49.400;11.092;2022-12-07T09:42:39;21.47;;;11.17;;
3547;SDS011;1788;49.400;11.092;2022-12-07T09:45:06;19.73;;;11.37;;
3547;SDS011;1788;49.400;11.092;2022-12-07T09:47:32;16.23;;;9.77;;
3547;SDS011;1788;49.400;11.092;2022-12-07T09:50:07;18.80;;;9.77;;
3547;SDS011;1788;49.400;11.092;2022-12-07T09:52:26;22.00;;;12.17;;
3547;SDS011;1788;49.400;11.092;2022-12-07T09:54:52;20.67;;;11.23;;
3547;SDS011;1788;49.400;11.092;2022-12-07T09:59:45;19.17;;;10.10;;
3547;SDS011;1788;49.400;11.092;2022-12-07T10:04:38;21.63;;;11.43;;
3547;SDS011;1788;49.400;11.092;2022-12-07T10:07:05;23.07;;;11.03;;
3547;SDS011;1788;49.400;11.092;2022-12-07T10:09:32;18.87;;;9.70;;
3547;SDS011;1788;49.400;11.092;2022-12-07T10:14:25;22.83;;;12.23;;
3547;SDS011;1788;49.400;11.092;2022-12-07T10:16:52;21.70;;;10.93;;
3547;SDS011;1788;49.400;11.092;2022-12-07T10:19:22;22.13;;;11.77;;
3547;SDS011;1788;49.400;11.092;2022-12-07T10:24:14;23.33;;;11.80;;
3547;SDS011;1788;49.400;11.092;2022-12-07T10:31:33;14.40;;;8.47;;
3547;SDS011;1788;49.400;11.092;2022-12-07T10:34:00;16.83;;;9.80;;
3547;SDS011;1788;49.400;11.092;2022-12-07T10:36:27;16.10;;;9.10;;
3547;SDS011;1788;49.400;11.092;2022-12-07T10:38:58;14.07;;;8.10;;
3547;SDS011;1788;49.400;11.092;2022-12-07T10:41:19;17.30;;;8.33;;
3547;SDS011;1788;49.400;11.092;2022-12-07T10:43:46;16.57;;;9.53;;
3547;SDS011;1788;49.400;11.092;2022-12-07T10:48:43;17.03;;;9.23;;
3547;SDS011;1788;49.400;11.092;2022-12-07T10:51:10;19.40;;;9.83;;
3547;SDS011;1788;49.400;11.092;2022-12-07T11:22:58;17.07;;;9.40;;
3547;SDS011;1788;49.400;11.092;2022-12-07T11:35:11;16.13;;;9.53;;
3547;SDS011;1788;49.400;11.092;2022-12-07T11:37:37;18.67;;;10.50;;
3547;SDS011;1788;49.400;11.092;2022-12-07T11:40:05;15.77;;;9.07;;
3547;SDS011;1788;49.400;11.092;2022-12-07T11:54:43;14.50;;;9.53;;
3547;SDS011;1788;49.400;11.092;2022-12-07T11:57:12;15.87;;;8.33;;
3547;SDS011;1788;49.400;11.092;2022-12-07T11:59:38;17.93;;;10.07;;
3547;SDS011;1788;49.400;11.092;2022-12-07T12:02:08;15.07;;;9.03;;
3547;SDS011;1788;49.400;11.092;2022-12-07T12:06:56;14.90;;;8.93;;
3547;SDS011;1788;49.400;11.092;2022-12-07T12:09:29;16.60;;;9.00;;
3547;SDS011;1788;49.400;11.092;2022-12-07T12:19:14;19.00;;;9.87;;
3547;SDS011;1788;49.400;11.092;2022-12-07T12:21:37;14.77;;;8.30;;
3547;SDS011;1788;49.400;11.092;2022-12-07T12:26:31;17.93;;;9.10;;
3547;SDS011;1788;49.400;11.092;2022-12-07T12:28:58;17.10;;;8.93;;
3547;SDS011;1788;49.400;11.092;2022-12-07T12:36:20;19.70;;;10.07;;
3547;SDS011;1788;49.400;11.092;2022-12-07T12:41:11;15.13;;;8.50;;
3547;SDS011;1788;49.400;11.092;2022-12-07T12:48:35;18.93;;;10.00;;
3547;SDS011;1788;49.400;11.092;2022-12-07T12:53:24;14.13;;;9.00;;
3547;SDS011;1788;49.400;11.092;2022-12-07T13:05:37;16.23;;;9.17;;
3547;SDS011;1788;49.400;11.092;2022-12-07T13:10:33;15.40;;;9.37;;
3547;SDS011;1788;49.400;11.092;2022-12-07T13:20:40;18.10;;;10.20;;
3547;SDS011;1788;49.400;11.092;2022-12-07T13:22:43;16.63;;;9.17;;
3547;SDS011;1788;49.400;11.092;2022-12-07T13:30:09;15.40;;;9.77;;
3547;SDS011;1788;49.400;11.092;2022-12-07T13:32:30;22.60;;;10.90;;
3547;SDS011;1788;49.400;11.092;2022-12-07T13:34:58;19.20;;;10.40;;
3547;SDS011;1788;49.400;11.092;2022-12-07T13:39:52;33.83;;;14.87;;
3547;SDS011;1788;49.400;11.092;2022-12-07T13:44:44;35.97;;;15.87;;
3547;SDS011;1788;49.400;11.092;2022-12-07T13:49:38;67.03;;;23.00;;
3547;SDS011;1788;49.400;11.092;2022-12-07T13:54:30;26.97;;;12.00;;
3547;SDS011;1788;49.400;11.092;2022-12-07T13:56:57;37.93;;;15.63;;
3547;SDS011;1788;49.400;11.092;2022-12-07T13:59:24;26.80;;;13.90;;
3547;SDS011;1788;49.400;11.092;2022-12-07T14:01:51;24.67;;;11.50;;
3547;SDS011;1788;49.400;11.092;2022-12-07T14:11:37;21.07;;;10.07;;
3547;SDS011;1788;49.400;11.092;2022-12-07T14:14:04;28.57;;;13.20;;
3547;SDS011;1788;49.400;11.092;2022-12-07T14:16:32;43.67;;;19.90;;
3547;SDS011;1788;49.400;11.092;2022-12-07T14:19:00;30.70;;;15.50;;
3547;SDS011;1788;49.400;11.092;2022-12-07T14:21:27;26.40;;;14.03;;
3547;SDS011;1788;49.400;11.092;2022-12-07T14:26:20;25.17;;;14.00;;
3547;SDS011;1788;49.400;11.092;2022-12-07T14:28:46;24.77;;;10.90;;
3547;SDS011;1788;49.400;11.092;2022-12-07T14:31:14;19.80;;;10.73;;
3547;SDS011;1788;49.400;11.092;2022-12-07T14:33:39;23.47;;;11.50;;
3547;SDS011;1788;49.400;11.092;2022-12-07T14:36:07;20.70;;;11.57;;
3547;SDS011;1788;49.400;11.092;2022-12-07T14:38:32;24.73;;;14.43;;
3547;SDS011;1788;49.400;11.092;2022-12-07T14:40:59;20.27;;;11.70;;
3547;SDS011;1788;49.400;11.092;2022-12-07T14:43:26;17.57;;;10.13;;
3547;SDS011;1788;49.400;11.092;2022-12-07T14:45:53;17.83;;;10.50;;
3547;SDS011;1788;49.400;11.092;2022-12-07T14:48:20;21.90;;;11.27;;
3547;SDS011;1788;49.400;11.092;2022-12-07T14:53:14;23.37;;;13.80;;
3547;SDS011;1788;49.400;11.092;2022-12-07T14:55:40;23.33;;;12.67;;
3547;SDS011;1788;49.400;11.092;2022-12-07T14:58:10;25.27;;;13.90;;
3547;SDS011;1788;49.400;11.092;2022-12-07T15:00:33;24.83;;;12.97;;
3547;SDS011;1788;49.400;11.092;2022-12-07T15:03:00;20.97;;;12.93;;
3547;SDS011;1788;49.400;11.092;2022-12-07T15:05:26;22.17;;;11.93;;
3547;SDS011;1788;49.400;11.092;2022-12-07T15:07:53;17.73;;;9.93;;
3547;SDS011;1788;49.400;11.092;2022-12-07T15:10:21;19.47;;;10.93;;
3547;SDS011;1788;49.400;11.092;2022-12-07T15:12:46;17.63;;;11.63;;
3547;SDS011;1788;49.400;11.092;2022-12-07T15:15:13;22.93;;;11.83;;
3547;SDS011;1788;49.400;11.092;2022-12-07T15:17:39;18.23;;;10.03;;
3547;SDS011;1788;49.400;11.092;2022-12-07T15:20:08;20.50;;;10.40;;
3547;SDS011;1788;49.400;11.092;2022-12-07T15:22:32;26.60;;;13.00;;
3547;SDS011;1788;49.400;11.092;2022-12-07T15:24:59;20.53;;;11.90;;
3547;SDS011;1788;49.400;11.092;2022-12-07T15:27:26;25.33;;;13.00;;
3547;SDS011;1788;49.400;11.092;2022-12-07T15:29:52;21.07;;;11.30;;
3547;SDS011;1788;49.400;11.092;2022-12-07T15:32:19;20.23;;;11.83;;
3547;SDS011;1788;49.400;11.092;2022-12-07T15:34:46;20.70;;;10.67;;
3547;SDS011;1788;49.400;11.092;2022-12-07T15:37:13;19.47;;;11.73;;
3547;SDS011;1788;49.400;11.092;2022-12-07T15:39:40;22.97;;;11.40;;
3547;SDS011;1788;49.400;11.092;2022-12-07T15:42:07;19.37;;;11.37;;
3547;SDS011;1788;49.400;11.092;2022-12-07T15:44:34;20.97;;;12.63;;
3547;SDS011;1788;49.400;11.092;2022-12-07T15:47:00;19.77;;;11.73;;
3547;SDS011;1788;49.400;11.092;2022-12-07T15:49:27;20.53;;;10.90;;
3547;SDS011;1788;49.400;11.092;2022-12-07T15:51:53;44.57;;;20.47;;
3547;SDS011;1788;49.400;11.092;2022-12-07T15:56:47;55.93;;;28.63;;
3547;SDS011;1788;49.400;11.092;2022-12-07T15:59:13;23.10;;;13.63;;
3547;SDS011;1788;49.400;11.092;2022-12-07T16:01:40;18.30;;;11.60;;
3547;SDS011;1788;49.400;11.092;2022-12-07T16:04:06;21.70;;;12.60;;
3547;SDS011;1788;49.400;11.092;2022-12-07T16:06:33;16.43;;;10.07;;
3547;SDS011;1788;49.400;11.092;2022-12-07T16:09:00;15.57;;;9.97;;
3547;SDS011;1788;49.400;11.092;2022-12-07T16:11:26;24.00;;;11.63;;
3547;SDS011;1788;49.400;11.092;2022-12-07T16:13:53;21.03;;;11.60;;
3547;SDS011;1788;49.400;11.092;2022-12-07T16:16:20;23.80;;;12.43;;
3547;SDS011;1788;49.400;11.092;2022-12-07T16:18:46;23.20;;;13.03;;
3547;SDS011;1788;49.400;11.092;2022-12-07T16:21:13;22.73;;;12.63;;
3547;SDS011;1788;49.400;11.092;2022-12-07T16:23:40;20.00;;;11.23;;
3547;SDS011;1788;49.400;11.092;2022-12-07T16:26:07;21.07;;;11.93;;
3547;SDS011;1788;49.400;11.092;2022-12-07T16:28:33;18.70;;;10.13;;
3547;SDS011;1788;49.400;11.092;2022-12-07T16:31:01;15.93;;;10.67;;
3547;SDS011;1788;49.400;11.092;2022-12-07T16:33:27;20.47;;;10.37;;
3547;SDS011;1788;49.400;11.092;2022-12-07T16:35:54;19.67;;;11.33;;
3547;SDS011;1788;49.400;11.092;2022-12-07T16:38:21;16.37;;;10.30;;
3547;SDS011;1788;49.400;11.092;2022-12-07T16:40:47;18.07;;;9.30;;
3547;SDS011;1788;49.400;11.092;2022-12-07T16:43:14;17.30;;;10.80;;
3547;SDS011;1788;49.400;11.092;2022-12-07T16:45:40;23.00;;;11.50;;
3547;SDS011;1788;49.400;11.092;2022-12-07T16:48:07;22.90;;;12.23;;
3547;SDS011;1788;49.400;11.092;2022-12-07T16:50:34;24.03;;;12.77;;
3547;SDS011;1788;49.400;11.092;2022-12-07T16:53:00;18.57;;;11.07;;
3547;SDS011;1788;49.400;11.092;2022-12-07T16:55:27;20.30;;;12.80;;
3547;SDS011;1788;49.400;11.092;2022-12-07T16:57:53;36.23;;;16.80;;
3547;SDS011;1788;49.400;11.092;2022-12-07T17:00:20;48.63;;;21.73;;
3547;SDS011;1788;49.400;11.092;2022-12-07T17:02:47;25.63;;;14.27;;
3547;SDS011;1788;49.400;11.092;2022-12-07T17:05:13;24.73;;;13.80;;
3547;SDS011;1788;49.400;11.092;2022-12-07T17:07:40;25.77;;;13.33;;
3547;SDS011;1788;49.400;11.092;2022-12-07T17:10:06;25.60;;;15.77;;
3547;SDS011;1788;49.400;11.092;2022-12-07T17:12:34;26.30;;;15.97;;
3547;SDS011;1788;49.400;11.092;2022-12-07T17:15:00;24.47;;;13.83;;
3547;SDS011;1788;49.400;11.092;2022-12-07T17:17:28;23.80;;;13.03;;
3547;SDS011;1788;49.400;11.092;2022-12-07T17:19:54;22.67;;;12.83;;
3547;SDS011;1788;49.400;11.092;2022-12-07T17:22:21;25.03;;;13.67;;
3547;SDS011;1788;49.400;11.092;2022-12-07T17:24:47;25.10;;;13.20;;
3547;SDS011;1788;49.400;11.092;2022-12-07T17:27:14;25.40;;;14.83;;
3547;SDS011;1788;49.400;11.092;2022-12-07T17:29:42;26.70;;;14.30;;
3547;SDS011;1788;49.400;11.092;2022-12-07T17:32:09;22.73;;;13.40;;
3547;SDS011;1788;49.400;11.092;2022-12-07T17:34:36;23.43;;;13.63;;
3547;SDS011;1788;49.400;11.092;2022-12-07T17:37:03;24.10;;;13.80;;
3547;SDS011;1788;49.400;11.092;2022-12-07T17:39:29;24.47;;;15.07;;
3547;SDS011;1788;49.400;11.092;2022-12-07T17:41:56;25.20;;;14.30;;
3547;SDS011;1788;49.400;11.092;2022-12-07T17:44:23;24.03;;;13.57;;
3547;SDS011;1788;49.400;11.092;2022-12-07T17:46:50;24.03;;;14.67;;
3547;SDS011;1788;49.400;11.092;2022-12-07T17:49:17;27.93;;;15.43;;
3547;SDS011;1788;49.400;11.092;2022-12-07T17:51:43;25.90;;;15.03;;
3547;SDS011;1788;49.400;11.092;2022-12-07T17:54:10;29.80;;;16.13;;